Time;durP1;ratioP1;P1;durP2;ratioP2;P2;SDS_P1;SDS_P2;PMS_P1;PMS_P2;Temp;Humidity;BMP_temperature;BMP_pressure;BME280_temperature;BME280_humidity;BME280_pressure;Samples;Min_cycle;Max_cycle;Signal;HPM_P1;HPM_P2
2021/07/05 00:01:46;;;;;;;6.27;5.67;;;15.10;99.90;;;;;;5033920;28;20258;-37
2021/07/05 00:04:11;;;;;;;5.70;5.20;;;15.10;99.90;;;;;;5046488;28;20563;-37
2021/07/05 00:06:38;;;;;;;6.27;5.67;;;15.10;99.90;;;;;;5047238;28;20194;-38
2021/07/05 00:09:07;;;;;;;6.93;6.13;;;15.10;99.90;;;;;;5047189;28;20576;-38
2021/07/05 00:11:33;;;;;;;8.83;5.70;;;15.10;99.90;;;;;;5046357;28;20684;-37
2021/07/05 00:13:59;;;;;;;6.50;5.67;;;15.00;99.90;;;;;;5046476;28;20597;-37
2021/07/05 00:16:25;;;;;;;6.57;5.50;;;15.00;99.90;;;;;;5036754;28;20604;-38
2021/07/05 00:18:51;;;;;;;7.17;5.10;;;14.90;99.90;;;;;;5045995;28;20432;-38
2021/07/05 00:21:16;;;;;;;8.10;5.93;;;14.90;99.90;;;;;;5046956;28;20177;-38
2021/07/05 00:23:42;;;;;;;6.20;5.60;;;14.80;99.90;;;;;;5046162;28;20280;-37
2021/07/05 00:26:09;;;;;;;7.27;4.93;;;14.80;99.90;;;;;;5047038;28;20221;-38
2021/07/05 00:28:36;;;;;;;5.33;4.93;;;14.80;99.90;;;;;;5046545;28;20197;-38
2021/07/05 00:31:02;;;;;;;5.57;4.90;;;14.70;99.90;;;;;;5040144;28;20447;-37
2021/07/05 00:33:28;;;;;;;5.77;5.17;;;14.60;99.90;;;;;;5042363;28;20416;-38
2021/07/05 00:35:54;;;;;;;4.90;4.40;;;14.70;99.90;;;;;;5045535;28;20435;-38
2021/07/05 00:38:19;;;;;;;4.70;4.20;;;14.70;99.90;;;;;;5045465;28;20492;-38
2021/07/05 00:40:45;;;;;;;5.27;4.37;;;14.70;99.90;;;;;;5046793;28;20225;-37
2021/07/05 00:43:11;;;;;;;4.10;3.70;;;14.70;99.90;;;;;;5045502;28;20280;-38
2021/07/05 00:45:37;;;;;;;4.43;4.03;;;14.60;99.90;;;;;;5042027;28;20522;-37
2021/07/05 00:48:03;;;;;;;3.70;3.40;;;14.60;99.90;;;;;;5021885;28;20200;-37
2021/07/05 00:50:29;;;;;;;4.33;3.70;;;14.60;99.90;;;;;;5046547;28;20198;-38
2021/07/05 00:52:58;;;;;;;3.90;3.60;;;14.50;99.90;;;;;;5046116;28;20485;-38
2021/07/05 00:55:25;;;;;;;4.33;3.50;;;14.50;99.90;;;;;;5046380;28;20894;-37
2021/07/05 00:57:51;;;;;;;4.47;4.07;;;14.50;99.90;;;;;;5046760;28;20531;-37
2021/07/05 01:00:19;;;;;;;4.20;3.57;;;14.50;99.90;;;;;;5045206;28;20486;-38
2021/07/05 01:02:45;;;;;;;3.83;3.30;;;14.50;99.90;;;;;;5042406;28;20420;-37
2021/07/05 01:05:12;;;;;;;5.00;4.10;;;14.40;99.90;;;;;;5046051;28;20746;-37
2021/07/05 01:07:38;;;;;;;5.10;3.77;;;14.40;99.90;;;;;;5046099;28;20428;-38
2021/07/05 01:10:06;;;;;;;5.13;4.20;;;14.30;99.90;;;;;;5045079;28;20934;-38
2021/07/05 01:12:32;;;;;;;3.87;3.43;;;14.30;99.90;;;;;;5045432;28;21053;-37
2021/07/05 01:14:57;;;;;;;3.50;3.20;;;14.40;99.90;;;;;;5045793;28;20586;-37
2021/07/05 01:17:24;;;;;;;3.33;2.93;;;14.40;99.90;;;;;;5035643;28;20571;-38
2021/07/05 01:19:50;;;;;;;3.87;3.47;;;14.50;99.90;;;;;;5045760;28;20525;-38
2021/07/05 01:22:18;;;;;;;3.93;3.20;;;14.50;99.90;;;;;;5045942;28;20428;-37
2021/07/05 01:24:45;;;;;;;5.80;3.83;;;14.60;99.90;;;;;;5045446;28;20428;-38
2021/07/05 01:27:12;;;;;;;5.53;3.00;;;14.70;99.90;;;;;;5063627;28;20423;-37
2021/07/05 01:29:41;;;;;;;3.23;2.93;;;14.60;99.90;;;;;;5066209;28;20434;-37
2021/07/05 01:32:08;;;;;;;3.23;2.93;;;14.60;99.90;;;;;;5043745;28;20436;-37
2021/07/05 01:34:35;;;;;;;3.40;3.10;;;14.70;99.90;;;;;;5045250;28;20431;-37
2021/07/05 01:37:01;;;;;;;4.27;2.80;;;14.80;99.90;;;;;;5046066;28;20943;-38
2021/07/05 01:39:26;;;;;;;2.80;2.60;;;14.90;99.90;;;;;;5046462;28;20506;-38
2021/07/05 01:41:53;;;;;;;3.53;2.97;;;15.00;99.90;;;;;;5045977;28;20913;-38
2021/07/05 01:44:19;;;;;;;4.27;2.97;;;15.20;99.90;;;;;;5045486;28;20201;-38
2021/07/05 01:46:45;;;;;;;5.33;2.80;;;15.20;99.90;;;;;;5035885;28;20437;-37
2021/07/05 01:49:11;;;;;;;3.07;2.77;;;15.20;99.90;;;;;;5039092;28;20232;-37
2021/07/05 01:51:37;;;;;;;4.07;2.87;;;15.20;99.90;;;;;;5045597;28;20440;-38
2021/07/05 01:54:04;;;;;;;3.73;2.90;;;15.30;99.90;;;;;;5046849;28;20889;-37
2021/07/05 01:56:31;;;;;;;3.17;2.87;;;15.30;99.90;;;;;;5049739;28;20416;-38
2021/07/05 01:58:57;;;;;;;3.50;2.80;;;15.30;99.90;;;;;;5049596;28;20435;-37
2021/07/05 02:01:22;;;;;;;3.50;3.20;;;15.30;99.90;;;;;;5048644;28;20432;-38
2021/07/05 02:03:48;;;;;;;3.87;3.20;;;15.30;99.90;;;;;;5044090;28;20662;-38
2021/07/05 02:06:15;;;;;;;2.70;2.50;;;15.40;99.90;;;;;;5049488;28;20648;-38
2021/07/05 02:08:41;;;;;;;4.30;3.23;;;15.30;99.90;;;;;;5049207;28;20459;-38
2021/07/05 02:11:06;;;;;;;3.10;2.80;;;15.30;99.90;;;;;;5049539;28;20420;-37
2021/07/05 02:13:36;;;;;;;2.90;2.70;;;15.30;99.90;;;;;;5047884;28;20595;-38
2021/07/05 02:16:03;;;;;;;3.10;2.80;;;15.30;99.90;;;;;;5045895;28;20198;-38
2021/07/05 02:18:30;;;;;;;3.50;2.47;;;15.40;99.90;;;;;;5043030;28;20478;-38
2021/07/05 02:20:59;;;;;;;2.47;2.27;;;15.40;99.90;;;;;;5047908;28;20464;-37
2021/07/05 02:23:25;;;;;;;3.07;2.73;;;15.50;99.90;;;;;;5047031;28;20428;-38
2021/07/05 02:25:51;;;;;;;3.20;2.90;;;15.50;99.90;;;;;;5049475;28;20430;-38
2021/07/05 02:28:21;;;;;;;3.17;2.87;;;15.50;99.90;;;;;;5049000;28;20628;-38
2021/07/05 02:30:49;;;;;;;6.70;3.23;;;15.60;99.90;;;;;;5048986;28;20456;-38
2021/07/05 02:33:21;;;;;;;3.03;2.63;;;15.60;99.90;;;;;;5037692;28;20799;-38
2021/07/05 02:35:47;;;;;;;3.70;3.30;;;15.60;99.90;;;;;;5048713;28;20420;-38
2021/07/05 02:38:13;;;;;;;2.77;2.43;;;15.60;99.90;;;;;;5049162;28;20458;-38
2021/07/05 02:40:42;;;;;;;3.33;3.13;;;15.60;99.90;;;;;;5049216;28;20205;-38
2021/07/05 02:43:08;;;;;;;2.73;2.53;;;15.60;99.90;;;;;;5048013;28;20423;-38
2021/07/05 02:45:35;;;;;;;4.33;2.67;;;15.60;99.90;;;;;;5048686;28;20424;-38
2021/07/05 02:48:07;;;;;;;3.87;3.23;;;15.50;99.90;;;;;;5039163;28;20216;-38
2021/07/05 02:50:33;;;;;;;3.80;3.13;;;15.50;99.90;;;;;;5048537;28;20432;-38
2021/07/05 02:53:00;;;;;;;5.67;2.80;;;15.50;99.90;;;;;;5047934;28;20930;-38
2021/07/05 02:55:27;;;;;;;3.37;2.50;;;15.50;99.90;;;;;;5047490;28;20424;-38
2021/07/05 02:57:53;;;;;;;2.60;2.40;;;15.40;99.90;;;;;;5048306;28;20470;-38
2021/07/05 03:00:29;;;;;;;3.20;2.90;;;15.40;99.90;;;;;;5048552;28;20464;-37
2021/07/05 03:02:55;;;;;;;3.33;2.50;;;15.40;99.90;;;;;;5037172;28;20481;-38
2021/07/05 03:05:25;;;;;;;3.07;2.77;;;15.40;99.90;;;;;;5047707;28;20431;-38
2021/07/05 03:07:51;;;;;;;4.23;2.67;;;15.40;99.90;;;;;;5048225;28;20444;-37
2021/07/05 03:10:21;;;;;;;4.23;3.13;;;15.40;99.90;;;;;;5048169;28;20439;-38
2021/07/05 03:12:47;;;;;;;2.73;2.40;;;15.50;99.90;;;;;;5046916;28;20424;-38
2021/07/05 03:15:15;;;;;;;2.87;2.60;;;15.50;99.90;;;;;;5047967;28;20429;-38
2021/07/05 03:17:42;;;;;;;5.03;2.60;;;15.50;99.90;;;;;;5038019;28;20480;-38
2021/07/05 03:20:20;;;;;;;5.13;2.87;;;15.50;99.90;;;;;;5047699;28;20458;-38
2021/07/05 03:22:46;;;;;;;5.03;2.77;;;15.50;99.90;;;;;;5047929;28;20527;-38
2021/07/05 03:25:14;;;;;;;4.03;2.53;;;15.50;99.90;;;;;;5047641;28;20452;-38
2021/07/05 03:27:40;;;;;;;3.40;3.10;;;15.60;99.90;;;;;;5048495;28;21167;-38
2021/07/05 03:30:10;;;;;;;3.40;2.23;;;15.60;99.90;;;;;;5046833;28;20467;-37
2021/07/05 03:32:36;;;;;;;2.50;2.20;;;15.60;99.90;;;;;;5037960;28;20455;-38
2021/07/05 03:35:04;;;;;;;2.67;2.47;;;15.60;99.90;;;;;;5047159;28;20431;-38
2021/07/05 03:37:30;;;;;;;2.80;2.40;;;15.70;99.90;;;;;;5047304;28;20432;-38
2021/07/05 03:39:56;;;;;;;2.87;2.67;;;15.70;99.90;;;;;;5047762;28;20467;-38
2021/07/05 03:42:21;;;;;;;3.97;2.77;;;15.70;99.90;;;;;;5047770;28;20212;-44
2021/07/05 03:44:47;;;;;;;5.07;2.90;;;15.70;99.90;;;;;;5045819;28;20538;-38
2021/07/05 03:47:13;;;;;;;2.73;2.53;;;15.80;99.90;;;;;;5039220;28;20824;-38
2021/07/05 03:49:38;;;;;;;2.60;2.40;;;15.80;99.90;;;;;;5044972;28;20198;-38
2021/07/05 03:52:04;;;;;;;3.97;2.37;;;15.80;99.90;;;;;;5045803;28;20289;-37
2021/07/05 03:54:30;;;;;;;4.00;2.70;;;15.80;99.90;;;;;;5047006;28;20197;-37
2021/07/05 03:56:56;;;;;;;3.80;2.50;;;15.90;99.90;;;;;;5047359;28;20432;-38
2021/07/05 03:59:22;;;;;;;2.70;2.50;;;15.90;99.90;;;;;;5047513;28;20212;-37
2021/07/05 04:01:48;;;;;;;2.80;2.60;;;16.00;99.90;;;;;;5044135;28;20289;-38
2021/07/05 04:04:13;;;;;;;2.50;2.30;;;15.90;99.90;;;;;;5042428;28;20193;-38
2021/07/05 04:06:39;;;;;;;3.17;2.17;;;16.00;99.90;;;;;;5045418;28;20855;-38
2021/07/05 04:09:06;;;;;;;3.53;2.67;;;16.00;99.90;;;;;;5046874;28;20221;-37
2021/07/05 04:11:33;;;;;;;3.73;2.20;;;16.10;99.90;;;;;;5045660;28;20348;-38
2021/07/05 04:13:59;;;;;;;2.10;2.00;;;16.10;99.90;;;;;;5046400;28;20451;-38
2021/07/05 04:16:25;;;;;;;3.30;2.20;;;16.10;99.90;;;;;;5046420;28;20448;-38
2021/07/05 04:18:51;;;;;;;3.07;2.10;;;16.20;99.90;;;;;;5032329;28;20913;-38
2021/07/05 04:21:18;;;;;;;3.73;2.93;;;16.20;99.90;;;;;;5046432;28;20559;-37
2021/07/05 04:23:44;;;;;;;2.30;2.10;;;16.30;99.90;;;;;;5046292;28;20232;-38
2021/07/05 04:26:09;;;;;;;2.10;1.90;;;16.40;99.90;;;;;;5047123;28;20491;-38
2021/07/05 04:28:35;;;;;;;4.87;2.10;;;16.40;99.90;;;;;;5045463;28;20236;-38
2021/07/05 04:31:01;;;;;;;2.70;2.50;;;16.40;99.90;;;;;;5045783;28;20239;-38
2021/07/05 04:33:27;;;;;;;2.20;2.00;;;16.40;99.90;;;;;;5034564;28;20507;-37
2021/07/05 04:35:53;;;;;;;2.63;2.20;;;16.40;99.90;;;;;;5046293;28;20483;-37
2021/07/05 04:38:19;;;;;;;2.40;2.20;;;16.40;99.90;;;;;;5046496;28;20790;-38
2021/07/05 04:40:45;;;;;;;2.27;2.17;;;16.40;99.90;;;;;;5046786;28;20294;-38
2021/07/05 04:43:11;;;;;;;2.53;2.20;;;16.50;99.90;;;;;;5045927;28;20189;-38
2021/07/05 04:45:38;;;;;;;2.63;2.43;;;16.50;99.90;;;;;;5045391;28;20424;-37
2021/07/05 04:48:05;;;;;;;2.40;2.00;;;16.50;99.90;;;;;;5036843;28;20182;-38
2021/07/05 04:50:32;;;;;;;2.50;2.13;;;16.50;99.90;;;;;;5041196;28;20442;-37
2021/07/05 04:52:59;;;;;;;2.20;2.00;;;16.50;99.90;;;;;;5044436;28;20423;-38
2021/07/05 04:55:25;;;;;;;3.67;1.93;;;16.50;99.90;;;;;;5045259;28;20442;-37
2021/07/05 04:57:52;;;;;;;2.60;2.40;;;16.40;99.90;;;;;;5044794;28;20432;-37
2021/07/05 05:00:25;;;;;;;3.30;2.40;;;16.40;99.90;;;;;;5045037;28;20459;-38
2021/07/05 05:02:52;;;;;;;3.40;2.57;;;16.50;99.90;;;;;;5039058;28;20484;-38
2021/07/05 05:05:18;;;;;;;2.70;2.50;;;16.40;99.90;;;;;;5040975;28;20775;-38
2021/07/05 05:07:44;;;;;;;2.20;2.00;;;16.50;99.90;;;;;;5046275;28;20432;-38
2021/07/05 05:10:11;;;;;;;3.43;1.67;;;16.40;99.90;;;;;;5046256;28;20424;-38
2021/07/05 05:12:37;;;;;;;2.60;2.10;;;16.40;99.90;;;;;;5046150;28;20296;-38
2021/07/05 05:15:05;;;;;;;1.70;1.60;;;16.30;99.90;;;;;;5045835;28;20520;-37
2021/07/05 05:17:31;;;;;;;1.33;0.97;;;16.30;99.90;;;;;;5040004;28;20174;-38
2021/07/05 05:19:57;;;;;;;1.57;1.47;;;16.30;99.90;;;;;;5038032;28;20526;-38
2021/07/05 05:22:23;;;;;;;3.30;1.27;;;16.20;99.90;;;;;;5046473;28;20728;-38
2021/07/05 05:24:48;;;;;;;2.00;1.80;;;16.10;99.90;;;;;;5045612;28;20182;-38
2021/07/05 05:27:15;;;;;;;1.47;1.37;;;16.10;99.90;;;;;;5049808;28;20430;-38
2021/07/05 05:29:41;;;;;;;2.37;2.17;;;16.10;99.90;;;;;;5059128;28;20197;-38
2021/07/05 05:32:07;;;;;;;3.03;2.73;;;16.10;99.90;;;;;;5064945;28;20798;-38
2021/07/05 05:34:33;;;;;;;3.50;3.03;;;16.10;99.90;;;;;;5045016;28;20712;-38
2021/07/05 05:36:59;;;;;;;6.43;4.83;;;16.10;99.90;;;;;;5050032;28;20248;-38
2021/07/05 05:39:25;;;;;;;5.23;2.83;;;16.10;99.90;;;;;;5050093;28;20503;-38
2021/07/05 05:41:50;;;;;;;2.53;1.87;;;16.00;99.90;;;;;;5050094;28;20191;-38
2021/07/05 05:44:16;;;;;;;3.33;1.80;;;16.00;99.90;;;;;;5049812;28;20292;-38
2021/07/05 05:46:42;;;;;;;2.90;1.33;;;15.90;99.90;;;;;;5049872;28;20312;-38
2021/07/05 05:49:07;;;;;;;2.00;1.20;;;15.80;99.90;;;;;;5039339;28;20174;-38
2021/07/05 05:51:35;;;;;;;1.23;1.10;;;15.60;99.90;;;;;;5048242;28;20750;-38
2021/07/05 05:54:04;;;;;;;2.93;1.20;;;15.50;99.90;;;;;;5049357;28;20208;-38
2021/07/05 05:56:33;;;;;;;1.90;1.20;;;15.50;99.90;;;;;;5049534;28;20424;-38
2021/07/05 05:59:06;;;;;;;2.37;1.27;;;15.40;99.90;;;;;;5048517;28;20432;-38
2021/07/05 06:01:34;;;;;;;1.83;1.23;;;15.30;99.90;;;;;;5049157;28;20477;-38
2021/07/05 06:04:00;;;;;;;1.33;1.17;;;15.30;99.90;;;;;;5038718;28;20431;-38
2021/07/05 06:06:26;;;;;;;1.30;1.20;;;15.20;99.90;;;;;;5049348;28;20895;-38
2021/07/05 06:08:52;;;;;;;4.77;1.90;;;15.20;99.90;;;;;;5049507;28;20463;-37
2021/07/05 06:11:18;;;;;;;3.03;1.67;;;15.20;99.90;;;;;;5049145;28;20853;-37
2021/07/05 06:13:44;;;;;;;2.03;1.60;;;15.20;99.90;;;;;;5049209;28;20427;-37
2021/07/05 06:16:10;;;;;;;2.07;1.40;;;15.20;99.90;;;;;;5030127;28;20514;-37
2021/07/05 06:18:36;;;;;;;2.90;1.57;;;15.20;99.90;;;;;;5044276;28;20455;-38
2021/07/05 06:21:03;;;;;;;2.20;2.00;;;15.20;99.90;;;;;;5048125;28;20464;-37
2021/07/05 06:23:28;;;;;;;2.00;1.80;;;15.20;99.90;;;;;;5047644;28;20420;-38
2021/07/05 06:26:00;;;;;;;1.93;1.83;;;15.20;99.90;;;;;;5047439;28;20934;-38
2021/07/05 06:28:28;;;;;;;2.30;2.03;;;15.10;99.90;;;;;;5047486;28;20896;-38
2021/07/05 06:30:54;;;;;;;4.73;2.03;;;15.10;99.90;;;;;;5049318;28;20460;-38
2021/07/05 06:33:20;;;;;;;7.23;2.60;;;15.10;99.90;;;;;;5042822;28;20469;-38
2021/07/05 06:35:47;;;;;;;3.43;2.97;;;15.10;99.90;;;;;;5048550;28;20439;-38
2021/07/05 06:38:14;;;;;;;4.00;3.00;;;15.10;99.90;;;;;;5048999;28;20495;-38
2021/07/05 06:40:41;;;;;;;3.93;3.10;;;15.10;99.90;;;;;;5047685;28;20741;-37
2021/07/05 06:43:07;;;;;;;4.33;3.93;;;15.10;99.90;;;;;;5048748;28;20450;-38
2021/07/05 06:45:33;;;;;;;5.00;4.23;;;15.10;99.90;;;;;;5046552;28;20425;-38
2021/07/05 06:47:59;;;;;;;5.63;4.67;;;15.10;99.90;;;;;;5044303;28;20437;-37
2021/07/05 06:50:25;;;;;;;5.40;4.80;;;15.10;99.90;;;;;;5044889;28;20437;-37
2021/07/05 06:52:52;;;;;;;4.60;4.17;;;15.10;99.90;;;;;;5048642;28;20411;-38
2021/07/05 06:55:18;;;;;;;5.47;4.27;;;15.20;99.90;;;;;;5048540;28;20435;-38
2021/07/05 06:57:44;;;;;;;4.90;4.40;;;15.20;99.90;;;;;;5047399;28;20436;-37
2021/07/05 07:00:16;;;;;;;5.17;4.67;;;15.20;99.90;;;;;;5048349;28;20260;-38
2021/07/05 07:02:42;;;;;;;5.60;5.10;;;15.20;99.90;;;;;;5047361;28;20440;-37
2021/07/05 07:05:11;;;;;;;4.10;3.70;;;15.30;99.90;;;;;;5040336;28;20802;-38
2021/07/05 07:07:38;;;;;;;7.30;4.37;;;15.30;99.90;;;;;;5048557;28;20818;-38
2021/07/05 07:10:05;;;;;;;4.80;4.30;;;15.30;99.90;;;;;;5049560;28;20530;-37
2021/07/05 07:12:33;;;;;;;3.80;3.50;;;15.40;99.90;;;;;;5053491;28;20518;-37
2021/07/05 07:14:59;;;;;;;5.33;4.47;;;15.50;99.90;;;;;;5045427;28;20451;-38
2021/07/05 07:17:36;;;;;;;4.73;4.43;;;15.50;99.90;;;;;;5046464;28;20416;-38
2021/07/05 07:20:04;;;;;;;4.60;4.20;;;15.60;99.90;;;;;;5035535;28;20214;-38
2021/07/05 07:22:29;;;;;;;5.40;4.20;;;15.60;99.90;;;;;;5047697;28;20420;-38
2021/07/05 07:24:55;;;;;;;5.43;4.07;;;15.60;99.90;;;;;;5047494;28;20747;-38
2021/07/05 07:27:21;;;;;;;4.13;3.70;;;15.70;99.90;;;;;;5046884;28;20197;-38
2021/07/05 07:29:46;;;;;;;4.30;3.20;;;15.70;99.90;;;;;;5049704;28;20637;-37
2021/07/05 07:32:12;;;;;;;3.53;3.23;;;15.70;99.90;;;;;;5049709;28;20189;-38
2021/07/05 07:34:39;;;;;;;4.50;2.83;;;15.80;99.90;;;;;;5043035;28;20545;-38
2021/07/05 07:37:06;;;;;;;4.60;3.37;;;15.80;99.90;;;;;;5046953;28;20443;-38
2021/07/05 07:39:41;;;;;;;4.40;3.07;;;15.80;99.90;;;;;;5047668;28;20543;-38
2021/07/05 07:42:06;;;;;;;2.77;2.30;;;15.90;99.90;;;;;;5047544;28;20420;-38
2021/07/05 07:44:36;;;;;;;2.77;2.57;;;16.00;99.90;;;;;;5047313;28;20428;-38
2021/07/05 07:47:06;;;;;;;3.13;2.60;;;16.00;99.90;;;;;;5047480;28;20920;-38
2021/07/05 07:49:32;;;;;;;3.50;2.63;;;16.10;99.90;;;;;;5036928;28;20445;-37
2021/07/05 07:51:58;;;;;;;3.77;2.03;;;16.10;99.90;;;;;;5046290;28;20511;-38
2021/07/05 07:54:24;;;;;;;3.07;2.60;;;16.20;99.90;;;;;;5047155;28;20435;-38
2021/07/05 07:56:51;;;;;;;3.60;2.60;;;16.20;99.90;;;;;;5047818;28;20812;-38
2021/07/05 07:59:17;;;;;;;2.77;2.17;;;16.20;99.90;;;;;;5044987;28;20441;-38
2021/07/05 08:01:42;;;;;;;3.00;2.37;;;16.30;99.90;;;;;;5047678;28;20425;-38
2021/07/05 08:04:09;;;;;;;4.10;3.00;;;16.30;99.90;;;;;;5040388;28;20236;-37
2021/07/05 08:06:35;;;;;;;3.83;2.80;;;16.30;99.90;;;;;;5044505;28;20189;-38
2021/07/05 08:09:03;;;;;;;3.30;2.70;;;16.30;99.90;;;;;;5047070;28;20436;-38
2021/07/05 08:11:29;;;;;;;2.90;2.47;;;16.40;99.90;;;;;;5047445;28;20447;-38
2021/07/05 08:13:55;;;;;;;5.73;2.80;;;16.50;99.90;;;;;;5046197;28;20852;-38
2021/07/05 08:16:21;;;;;;;5.10;2.83;;;16.60;99.90;;;;;;5047360;28;20466;-38
2021/07/05 08:18:46;;;;;;;2.90;2.60;;;16.70;99.90;;;;;;5041933;28;20347;-38
2021/07/05 08:21:12;;;;;;;5.10;2.90;;;16.80;99.90;;;;;;5040877;28;20201;-38
2021/07/05 08:23:38;;;;;;;4.30;2.70;;;16.90;99.90;;;;;;5046298;28;20192;-38
2021/07/05 08:26:04;;;;;;;5.00;3.33;;;17.00;99.90;;;;;;5047120;28;20840;-38
2021/07/05 08:28:30;;;;;;;3.60;3.03;;;17.10;99.90;;;;;;5045378;28;20216;-38
2021/07/05 08:30:58;;;;;;;4.00;3.07;;;17.30;99.90;;;;;;5045775;28;20427;-37
2021/07/05 08:33:24;;;;;;;6.23;3.33;;;17.30;99.90;;;;;;5044470;28;20486;-37
2021/07/05 08:35:50;;;;;;;4.30;3.00;;;17.40;99.90;;;;;;5037783;28;20733;-38
2021/07/05 08:38:16;;;;;;;5.97;3.20;;;17.50;99.90;;;;;;5045262;28;20488;-38
2021/07/05 08:40:42;;;;;;;4.60;3.10;;;17.60;99.90;;;;;;5047019;28;20455;-38
2021/07/05 08:43:08;;;;;;;5.67;3.40;;;17.70;99.90;;;;;;5026843;28;21347;-38
2021/07/05 08:45:35;;;;;;;5.03;3.30;;;17.70;99.90;;;;;;5045436;28;20423;-38
2021/07/05 08:48:03;;;;;;;7.00;4.20;;;17.90;99.90;;;;;;5046315;28;20174;-38
2021/07/05 08:50:29;;;;;;;10.50;3.73;;;18.00;99.90;;;;;;5036945;28;20428;-38
2021/07/05 08:52:57;;;;;;;4.40;3.20;;;18.10;99.90;;;;;;5044595;28;20432;-37
2021/07/05 08:55:26;;;;;;;6.27;3.77;;;18.10;99.90;;;;;;5046354;28;20428;-38
2021/07/05 08:57:53;;;;;;;4.57;3.27;;;18.20;99.90;;;;;;5045580;28;21038;-38
2021/07/05 09:00:26;;;;;;;5.27;3.67;;;18.20;99.90;;;;;;5045921;28;20463;-38
2021/07/05 09:02:55;;;;;;;4.90;3.50;;;18.20;99.90;;;;;;5045531;28;20420;-38
2021/07/05 09:05:21;;;;;;;4.70;3.53;;;18.20;99.90;;;;;;5031658;28;20967;-38
2021/07/05 09:07:58;;;;;;;7.53;3.60;;;18.20;99.90;;;;;;5044608;28;20476;-38
2021/07/05 09:10:25;;;;;;;4.67;4.27;;;18.30;99.90;;;;;;5038625;28;20276;-37
2021/07/05 09:13:27;;;;;;;5.10;4.23;;;18.40;99.90;;;;;;5045323;28;20420;-38
2021/07/05 09:15:58;;;;;;;6.07;4.47;;;18.50;99.90;;;;;;5063224;28;20991;-38
2021/07/05 09:18:34;;;;;;;5.10;4.50;;;18.50;99.90;;;;;;5049122;28;20484;-38
2021/07/05 09:21:11;;;;;;;5.60;4.93;;;18.50;99.90;;;;;;5037476;28;20464;-38
2021/07/05 09:24:03;;;;;;;8.03;6.20;;;18.50;99.90;;;;;;5045625;28;20420;-38
2021/07/05 09:26:49;;;;;;;7.80;6.10;;;18.40;99.90;;;;;;5046376;28;20463;-38
2021/07/05 09:29:14;;;;;;;6.70;6.10;;;18.40;99.90;;;;;;5046260;28;20458;-38
2021/07/05 09:31:45;;;;;;;5.77;5.27;;;18.40;99.90;;;;;;5045592;28;20420;-38
2021/07/05 09:34:23;;;;;;;9.23;5.97;;;18.50;99.90;;;;;;5043234;28;20174;-38
2021/07/05 09:36:53;;;;;;;7.13;5.73;;;18.60;99.90;;;;;;5039766;28;20415;-38
2021/07/05 09:39:22;;;;;;;6.83;5.37;;;18.70;99.90;;;;;;5045967;28;20642;-38
2021/07/05 09:41:51;;;;;;;6.20;5.37;;;18.80;99.90;;;;;;5045627;28;20421;-38
2021/07/05 09:44:20;;;;;;;5.73;5.03;;;18.80;99.90;;;;;;5044961;28;20465;-38
2021/07/05 09:46:51;;;;;;;5.70;4.70;;;18.90;99.90;;;;;;5046017;28;20988;-38
2021/07/05 09:49:37;;;;;;;4.73;4.30;;;18.90;99.90;;;;;;5044366;28;20767;-38
2021/07/05 09:52:25;;;;;;;5.00;4.10;;;18.90;99.90;;;;;;5038237;28;20466;-38
2021/07/05 09:54:53;;;;;;;6.57;4.33;;;18.80;99.90;;;;;;5045411;28;20421;-38
2021/07/05 09:57:30;;;;;;;7.20;3.73;;;18.70;99.90;;;;;;5045909;28;20412;-38
2021/07/05 10:00:08;;;;;;;6.50;3.90;;;18.70;99.90;;;;;;5036444;28;20461;-38
2021/07/05 10:02:37;;;;;;;7.80;4.07;;;18.60;99.90;;;;;;5042194;28;20438;-38
2021/07/05 10:05:17;;;;;;;6.53;3.80;;;18.50;99.90;;;;;;5038907;28;20432;-38
2021/07/05 10:07:43;;;;;;;3.80;3.40;;;18.40;99.90;;;;;;5044314;28;20907;-38
2021/07/05 10:10:18;;;;;;;4.13;3.67;;;18.30;99.90;;;;;;5045717;28;20458;-38
2021/07/05 10:13:09;;;;;;;5.20;3.80;;;18.30;99.90;;;;;;5045526;28;21072;-37
2021/07/05 10:15:36;;;;;;;3.90;3.50;;;18.30;99.90;;;;;;5047646;28;20417;-38
2021/07/05 10:18:02;;;;;;;4.67;3.63;;;18.30;99.90;;;;;;5049566;28;20416;-37
2021/07/05 10:20:31;;;;;;;4.17;3.70;;;18.30;99.90;;;;;;5041888;28;20505;-38
2021/07/05 10:23:00;;;;;;;4.60;3.87;;;18.30;99.90;;;;;;5041417;28;20423;-38
2021/07/05 10:25:28;;;;;;;4.17;3.80;;;18.40;99.90;;;;;;5049322;28;20922;-38
2021/07/05 10:27:54;;;;;;;5.10;3.70;;;18.30;99.90;;;;;;5057875;28;20415;-38
2021/07/05 10:30:22;;;;;;;3.97;3.33;;;18.30;99.90;;;;;;5067231;28;20549;-37
2021/07/05 10:32:48;;;;;;;4.47;4.07;;;18.40;99.90;;;;;;5068388;28;20419;-38
2021/07/05 10:35:17;;;;;;;4.00;3.70;;;18.30;99.90;;;;;;5056800;28;20946;-38
2021/07/05 10:37:45;;;;;;;5.10;3.83;;;18.30;99.90;;;;;;5047090;28;20421;-38
2021/07/05 10:40:12;;;;;;;5.53;3.80;;;18.30;99.90;;;;;;5048564;28;20479;-38
2021/07/05 10:42:39;;;;;;;4.63;4.23;;;18.30;99.90;;;;;;5048787;28;20412;-38
2021/07/05 10:45:10;;;;;;;4.20;3.60;;;18.20;99.90;;;;;;5048271;28;20487;-38
2021/07/05 10:47:53;;;;;;;4.77;4.30;;;18.20;99.90;;;;;;5064262;28;20460;-38
2021/07/05 10:50:44;;;;;;;4.90;4.13;;;18.30;99.90;;;;;;5041495;28;20464;-38
2021/07/05 10:53:13;;;;;;;5.60;4.90;;;18.30;99.90;;;;;;5046947;28;20440;-38
2021/07/05 10:55:41;;;;;;;6.10;4.47;;;18.40;99.90;;;;;;5048509;28;21015;-38
2021/07/05 10:58:21;;;;;;;6.60;5.83;;;18.40;99.90;;;;;;5047713;28;20505;-38
2021/07/05 11:00:50;;;;;;;7.00;6.10;;;18.60;99.90;;;;;;5048494;28;20454;-38
2021/07/05 11:03:39;;;;;;;5.90;5.40;;;18.70;99.90;;;;;;5047687;28;20780;-38
2021/07/05 11:06:25;;;;;;;8.97;6.60;;;18.90;99.90;;;;;;5033629;28;20445;-38
2021/07/05 11:08:52;;;;;;;6.90;6.23;;;19.00;99.90;;;;;;5047443;28;20447;-38
2021/07/05 11:11:31;;;;;;;6.43;5.77;;;19.00;99.90;;;;;;5048392;28;20456;-38
2021/07/05 11:14:13;;;;;;;6.60;6.10;;;19.20;99.90;;;;;;5047831;28;20463;-38
2021/07/05 11:17:09;;;;;;;7.43;5.80;;;19.20;99.90;;;;;;5047182;28;20451;-38
2021/07/05 11:19:42;;;;;;;6.10;5.50;;;19.30;99.90;;;;;;5048368;28;20495;-38
2021/07/05 11:22:11;;;;;;;5.97;5.37;;;19.50;99.90;;;;;;5034463;28;20845;-38
2021/07/05 11:24:41;;;;;;;6.10;5.60;;;19.50;99.90;;;;;;5045959;28;20769;-38
2021/07/05 11:27:30;;;;;;;7.23;6.50;;;19.70;99.90;;;;;;5047880;28;20507;-38
2021/07/05 11:30:15;;;;;;;6.80;6.10;;;19.80;99.90;;;;;;5047842;28;20424;-38
2021/07/05 11:32:47;;;;;;;7.30;6.80;;;19.90;99.90;;;;;;5047979;28;20439;-38
2021/07/05 11:35:32;;;;;;;7.67;6.97;;;20.00;99.90;;;;;;5043695;28;20440;-38
2021/07/05 11:38:24;;;;;;;8.70;6.70;;;20.10;99.90;;;;;;5040017;28;21025;-38
2021/07/05 11:41:20;;;;;;;6.73;5.87;;;20.00;99.90;;;;;;5047157;28;20811;-39
2021/07/05 11:43:48;;;;;;;7.93;7.23;;;19.90;99.90;;;;;;5047848;28;20824;-38
2021/07/05 11:46:27;;;;;;;8.43;7.73;;;19.80;99.90;;;;;;5047471;28;21001;-38
2021/07/05 11:48:56;;;;;;;7.90;7.10;;;19.70;99.90;;;;;;5047753;28;20832;-38
2021/07/05 11:51:23;;;;;;;7.30;6.60;;;19.60;99.90;;;;;;5038398;28;20436;-38
2021/07/05 11:54:02;;;;;;;7.73;6.93;;;19.60;99.90;;;;;;5046251;28;20432;-38
2021/07/05 11:56:35;;;;;;;7.23;6.53;;;19.60;99.90;;;;;;5047436;28;20439;-38
2021/07/05 11:59:03;;;;;;;7.47;6.87;;;19.60;99.90;;;;;;5046335;28;20431;-37
2021/07/05 12:01:30;;;;;;;6.43;5.83;;;19.60;99.90;;;;;;5033794;28;20917;-38
2021/07/05 12:04:00;;;;;;;8.00;6.57;;;19.60;99.90;;;;;;5046727;28;20427;-38
2021/07/05 12:06:26;;;;;;;7.33;6.77;;;19.70;99.90;;;;;;5038774;28;20425;-38
2021/07/05 12:09:01;;;;;;;6.83;6.20;;;19.70;99.90;;;;;;5046677;28;20424;-38
2021/07/05 12:11:35;;;;;;;7.80;7.00;;;19.70;99.90;;;;;;5047186;28;20430;-37
2021/07/05 12:14:05;;;;;;;7.70;6.90;;;19.80;99.90;;;;;;5046447;28;20574;-38
2021/07/05 12:16:31;;;;;;;9.70;7.07;;;19.80;99.90;;;;;;5047010;28;21120;-38
2021/07/05 12:18:58;;;;;;;8.00;7.20;;;19.80;99.90;;;;;;5047368;28;20788;-38
2021/07/05 12:21:31;;;;;;;7.27;6.67;;;19.90;99.90;;;;;;5037262;28;20568;-38
2021/07/05 12:24:11;;;;;;;9.80;6.93;;;19.80;99.90;;;;;;5044646;28;21000;-38
2021/07/05 12:26:43;;;;;;;7.07;6.57;;;19.80;99.90;;;;;;5046527;28;20998;-38
2021/07/05 12:29:20;;;;;;;7.73;7.03;;;19.80;99.90;;;;;;5046776;28;20462;-38
2021/07/05 12:31:56;;;;;;;6.40;5.80;;;19.80;99.90;;;;;;5047189;28;20423;-38
2021/07/05 12:34:50;;;;;;;7.17;6.40;;;19.80;99.90;;;;;;5045067;28;20833;-38
2021/07/05 12:37:27;;;;;;;7.47;6.80;;;20.00;99.90;;;;;;5038118;28;20444;-38
2021/07/05 12:40:07;;;;;;;6.37;5.43;;;20.10;99.90;;;;;;5046262;28;20804;-38
2021/07/05 12:42:34;;;;;;;6.80;6.20;;;20.20;99.90;;;;;;5046886;28;20894;-38
2021/07/05 12:45:04;;;;;;;6.67;6.07;;;20.30;99.90;;;;;;5045776;28;20481;-38
2021/07/05 12:47:30;;;;;;;6.40;5.80;;;20.30;99.90;;;;;;5046336;28;20431;-39
2021/07/05 12:49:58;;;;;;;5.80;5.40;;;20.30;99.90;;;;;;5046561;28;20427;-38
2021/07/05 12:52:25;;;;;;;5.93;5.30;;;20.30;99.90;;;;;;5039331;28;20428;-38
2021/07/05 12:55:14;;;;;;;8.60;5.93;;;20.30;99.90;;;;;;5045562;28;20808;-38
2021/07/05 12:57:53;;;;;;;6.53;5.57;;;20.20;99.90;;;;;;5044170;28;20565;-38